createdAt,value
2022-09-28T00:01:20.915Z,18.06
2022-09-28T00:03:51.375Z,18.17
2022-09-28T00:06:23.438Z,18.08
2022-09-28T00:08:51.538Z,17.98
2022-09-28T00:11:20.872Z,17.74
2022-09-28T00:13:56.620Z,17.62
2022-09-28T00:16:29.618Z,17.56
2022-09-28T00:18:57.369Z,17.85
2022-09-28T00:21:30.435Z,17.84
2022-09-28T00:24:13.348Z,17.58
2022-09-28T00:26:56.699Z,17.82
2022-09-28T00:29:28.296Z,17.42
2022-09-28T00:32:02.536Z,17.36
2022-09-28T00:34:36.691Z,17.32
2022-09-28T00:37:06.511Z,17.29
2022-09-28T00:39:35.815Z,17.34
2022-09-28T00:42:10.986Z,17.28
2022-09-28T00:44:43.374Z,17.37
2022-09-28T00:47:30.173Z,17.42
2022-09-28T00:50:25.468Z,17.26
2022-09-28T00:53:19.063Z,17.58
2022-09-28T00:55:54.844Z,17.59
2022-09-28T00:58:35.241Z,17.41
2022-09-28T01:01:03.140Z,17.21
2022-09-28T01:03:31.132Z,17.27
2022-09-28T01:06:03.088Z,17.31
2022-09-28T01:08:34.411Z,17.29
2022-09-28T01:11:02.374Z,17.37
2022-09-28T01:13:32.791Z,17.26
2022-09-28T01:16:28.194Z,17.19
2022-09-28T01:19:50.229Z,17.12
2022-09-28T01:22:26.905Z,16.97
2022-09-28T01:25:07.695Z,16.89
2022-09-28T01:27:40.175Z,16.86
2022-09-28T01:30:15.487Z,16.84
2022-09-28T01:33:16.250Z,16.65
2022-09-28T01:35:55.588Z,16.69
2022-09-28T01:38:34.067Z,16.66
2022-09-28T01:41:02.106Z,16.76
2022-09-28T01:43:32.108Z,16.76
2022-09-28T01:46:25.222Z,16.86
2022-09-28T01:49:02.501Z,16.88
2022-09-28T01:52:05.942Z,17.05
2022-09-28T01:55:14.689Z,16.97
2022-09-28T01:57:49.989Z,17.01
2022-09-28T02:00:21.221Z,17.03
2022-09-28T02:03:13.791Z,17.04
2022-09-28T02:06:21.827Z,16.91
2022-09-28T02:08:59.277Z,16.83
2022-09-28T02:11:42.969Z,16.65
2022-09-28T02:14:14.669Z,16.73
2022-09-28T02:16:46.353Z,16.75
2022-09-28T02:19:22.067Z,16.79
2022-09-28T02:22:24.137Z,16.71
2022-09-28T02:25:39.427Z,16.77
2022-09-28T02:28:11.555Z,16.90
2022-09-28T02:30:41.946Z,16.57
2022-09-28T02:33:36.567Z,16.45
2022-09-28T02:36:05.254Z,16.20
2022-09-28T02:38:38.932Z,16.22
2022-09-28T02:41:27.320Z,16.11
2022-09-28T02:44:03.775Z,16.34
2022-09-28T02:46:57.420Z,16.33
2022-09-28T02:49:41.402Z,16.44
2022-09-28T02:52:36.657Z,16.39
2022-09-28T02:55:18.592Z,16.55
2022-09-28T02:58:19.584Z,16.09
2022-09-28T03:01:28.029Z,16.00
2022-09-28T03:04:21.415Z,15.82
2022-09-28T03:07:13.408Z,15.44
2022-09-28T03:09:54.244Z,15.49
2022-09-28T03:12:24.821Z,15.61
2022-09-28T03:15:14.159Z,15.43
2022-09-28T03:17:42.797Z,15.14
2022-09-28T03:20:11.702Z,15.09
2022-09-28T03:22:39.806Z,15.12
2022-09-28T03:25:08.867Z,15.03
2022-09-28T03:27:39.447Z,15.11
2022-09-28T03:30:09.122Z,15.21
2022-09-28T03:32:37.550Z,15.21
2022-09-28T03:35:06.569Z,15.04
2022-09-28T03:37:34.161Z,15.03
2022-09-28T03:40:02.248Z,15.10
2022-09-28T03:42:29.869Z,15.30
2022-09-28T03:44:57.321Z,15.48
2022-09-28T03:47:24.958Z,15.22
2022-09-28T03:49:52.363Z,15.33
2022-09-28T03:52:19.787Z,15.61
2022-09-28T03:54:49.366Z,15.32
2022-09-28T03:57:17.269Z,15.16
2022-09-28T03:59:45.970Z,15.08
2022-09-28T04:02:13.442Z,15.24
2022-09-28T04:04:43.273Z,15.14
2022-09-28T04:07:10.794Z,15.15
2022-09-28T04:09:38.402Z,15.17
2022-09-28T04:12:06.518Z,15.28
2022-09-28T04:14:36.975Z,15.18
2022-09-28T04:17:06.750Z,14.99
2022-09-28T04:19:34.469Z,14.92
2022-09-28T04:22:31.635Z,15.16
2022-09-28T04:24:59.413Z,15.05
2022-09-28T04:27:46.061Z,15.16
2022-09-28T04:30:14.188Z,15.09
2022-09-28T04:32:47.852Z,14.94
2022-09-28T04:35:16.766Z,15.00
2022-09-28T04:37:44.288Z,14.99
2022-09-28T04:40:12.151Z,15.15
2022-09-28T04:42:39.616Z,15.01
2022-09-28T04:45:08.103Z,14.99
2022-09-28T04:47:39.133Z,15.02
2022-09-28T04:50:33.416Z,15.06
2022-09-28T04:53:06.809Z,15.16
2022-09-28T04:55:34.368Z,15.45
2022-09-28T04:58:03.969Z,15.42
2022-09-28T05:00:35.222Z,15.48
2022-09-28T05:03:35.323Z,15.72
2022-09-28T05:06:28.587Z,15.68
2022-09-28T05:09:02.188Z,15.83
2022-09-28T05:11:29.637Z,15.93
2022-09-28T05:13:57.943Z,16.10
2022-09-28T05:16:26.848Z,16.29
2022-09-28T05:19:30.471Z,16.47
2022-09-28T05:22:05.996Z,16.73
2022-09-28T05:24:40.863Z,16.73
2022-09-28T05:27:09.553Z,16.64
2022-09-28T05:29:37.070Z,16.50
2022-09-28T05:32:44.420Z,16.68
2022-09-28T05:38:11.577Z,16.45
2022-09-28T05:40:39.088Z,16.40
2022-09-28T05:43:06.671Z,16.04
2022-09-28T05:45:34.184Z,16.26
2022-09-28T05:48:03.451Z,16.18
2022-09-28T05:50:31.444Z,16.43
2022-09-28T05:53:05.826Z,16.51
2022-09-28T05:55:34.302Z,16.63
2022-09-28T05:58:05.125Z,16.87
2022-09-28T06:00:36.562Z,17.14
2022-09-28T06:03:09.134Z,17.43
2022-09-28T06:05:39.470Z,17.52
2022-09-28T06:08:10.558Z,17.45
2022-09-28T06:10:42.372Z,17.75
2022-09-28T06:13:12.002Z,17.51
2022-09-28T06:15:43.816Z,17.58
2022-09-28T06:18:15.033Z,17.67
2022-09-28T06:21:08.281Z,18.08
2022-09-28T06:23:40.481Z,18.47
2022-09-28T06:26:08.645Z,18.52
2022-09-28T06:28:38.007Z,18.28
2022-09-28T06:31:06.362Z,18.54
2022-09-28T06:33:42.101Z,18.38
2022-09-28T06:36:10.671Z,18.40
2022-09-28T06:38:38.475Z,18.40
2022-09-28T06:41:06.627Z,18.51
2022-09-28T06:43:35.069Z,18.85
2022-09-28T06:46:21.422Z,18.98
2022-09-28T06:48:52.561Z,19.18
2022-09-28T06:51:33.220Z,19.60
2022-09-28T06:54:25.620Z,19.57
2022-09-28T06:57:11.416Z,19.70
2022-09-28T06:59:38.876Z,20.45
2022-09-28T07:02:06.461Z,20.53
2022-09-28T07:04:52.288Z,20.07
2022-09-28T07:07:48.809Z,20.25
2022-09-28T07:10:30.425Z,20.53
2022-09-28T07:13:47.542Z,20.67
2022-09-28T07:16:09.056Z,21.18
2022-09-28T07:18:36.836Z,21.10
2022-09-28T07:21:09.279Z,20.98
2022-09-28T07:23:49.415Z,20.97
2022-09-28T07:26:24.729Z,21.24
2022-09-28T07:28:58.276Z,21.10
2022-09-28T07:31:40.071Z,21.71
2022-09-28T07:34:28.167Z,21.63
2022-09-28T07:37:11.548Z,21.72
2022-09-28T07:39:58.767Z,22.08
2022-09-28T07:42:29.995Z,22.27
2022-09-28T07:45:00.447Z,22.39
2022-09-28T07:47:33.913Z,22.48
2022-09-28T07:50:30.874Z,22.16
2022-09-28T07:53:13.515Z,22.56
2022-09-28T07:56:07.275Z,22.61
2022-09-28T07:58:43.109Z,22.77
2022-09-28T08:01:39.846Z,23.01
2022-09-28T08:04:09.711Z,23.31
2022-09-28T08:06:40.464Z,23.36
2022-09-28T08:09:09.404Z,23.41
2022-09-28T08:11:55.327Z,23.54
2022-09-28T08:14:44.522Z,24.03
2022-09-28T08:17:38.848Z,23.66
2022-09-28T08:20:27.965Z,23.73
2022-09-28T08:22:55.510Z,23.85
2022-09-28T08:25:24.397Z,23.98
2022-09-28T08:27:56.332Z,24.25
2022-09-28T08:30:24.252Z,24.34
2022-09-28T08:33:11.418Z,24.46
2022-09-28T08:35:46.881Z,24.53
2022-09-28T08:38:33.789Z,24.74
2022-09-28T08:41:51.049Z,25.06
2022-09-28T08:44:48.014Z,24.91
2022-09-28T08:48:23.203Z,25.06
2022-09-28T08:51:31.103Z,25.35
2022-09-28T08:54:37.102Z,25.35
2022-09-28T08:57:23.347Z,25.69
2022-09-28T08:59:57.850Z,25.86
2022-09-28T09:02:36.342Z,25.90
2022-09-28T09:06:08.057Z,25.72
2022-09-28T09:09:37.712Z,25.96
2022-09-28T09:12:38.119Z,26.01
2022-09-28T09:15:38.913Z,26.00
2022-09-28T09:19:11.217Z,26.56
2022-09-28T09:22:41.137Z,26.83
2022-09-28T09:25:24.994Z,26.75
2022-09-28T09:28:30.758Z,27.12
2022-09-28T09:31:22.587Z,27.45
2022-09-28T09:34:23.609Z,27.39
2022-09-28T09:37:39.449Z,27.52
2022-09-28T09:40:34.819Z,27.58
2022-09-28T09:43:58.962Z,27.71
2022-09-28T09:46:59.111Z,27.74
2022-09-28T09:49:44.431Z,28.21
2022-09-28T09:52:44.455Z,28.58
2022-09-28T09:55:29.951Z,28.46
2022-09-28T09:58:46.294Z,28.43
2022-09-28T10:01:33.819Z,28.58
2022-09-28T10:04:43.249Z,28.65
2022-09-28T10:07:52.065Z,28.64
2022-09-28T10:10:30.332Z,28.96
2022-09-28T10:13:08.824Z,29.22
2022-09-28T10:15:37.427Z,29.31
2022-09-28T10:18:19.944Z,29.76
2022-09-28T10:21:06.294Z,29.63
2022-09-28T10:23:57.917Z,29.51
2022-09-28T10:26:37.461Z,29.55
2022-09-28T10:29:17.886Z,29.68
2022-09-28T10:31:50.968Z,29.87
2022-09-28T10:34:30.148Z,29.90
2022-09-28T10:37:09.293Z,30.18
2022-09-28T10:40:38.827Z,30.07
2022-09-28T10:43:25.421Z,29.94
2022-09-28T10:46:11.823Z,29.85
2022-09-28T10:49:13.883Z,30.18
2022-09-28T10:51:51.820Z,30.23
2022-09-28T10:54:26.417Z,30.08
2022-09-28T10:56:57.026Z,30.43
2022-09-28T10:59:41.397Z,30.42
2022-09-28T11:02:36.696Z,30.65
2022-09-28T11:05:23.186Z,30.79
2022-09-28T11:07:55.549Z,30.66
2022-09-28T11:10:32.721Z,30.66
2022-09-28T11:13:10.953Z,30.69
2022-09-28T11:15:44.376Z,31.13
2022-09-28T11:18:32.664Z,31.24
2022-09-28T11:21:17.382Z,31.10
2022-09-28T11:24:23.699Z,31.23
2022-09-28T11:26:56.904Z,31.52
2022-09-28T11:29:36.871Z,31.50
2022-09-28T11:32:25.428Z,31.38
2022-09-28T11:35:21.248Z,31.27
2022-09-28T11:38:19.012Z,31.28
2022-09-28T11:41:24.265Z,31.27
2022-09-28T11:44:33.301Z,31.12
2022-09-28T11:47:39.949Z,31.40
2022-09-28T11:50:41.324Z,31.91
2022-09-28T11:53:18.062Z,32.21
2022-09-28T11:55:53.912Z,32.20
2022-09-28T11:58:27.133Z,32.52
2022-09-28T12:01:28.265Z,32.63
2022-09-28T12:04:53.149Z,32.32
2022-09-28T12:07:53.224Z,32.33
2022-09-28T12:11:36.071Z,32.62
2022-09-28T12:14:33.570Z,32.44
2022-09-28T12:17:32.921Z,32.64
2022-09-28T12:20:34.183Z,32.90
2022-09-28T12:23:15.918Z,33.47
2022-09-28T12:25:59.355Z,33.47
2022-09-28T12:28:41.122Z,33.77
2022-09-28T12:31:26.621Z,34.05
2022-09-28T12:33:54.206Z,33.48
2022-09-28T12:36:44.150Z,33.44
2022-09-28T12:40:01.058Z,33.56
2022-09-28T12:42:38.566Z,33.31
2022-09-28T12:45:53.161Z,33.28
2022-09-28T12:48:36.213Z,32.90
2022-09-28T12:51:43.091Z,33.04
2022-09-28T12:54:55.523Z,33.54
2022-09-28T12:57:58.284Z,34.32
2022-09-28T13:00:33.708Z,34.58
2022-09-28T13:03:31.183Z,34.95
2022-09-28T13:06:10.575Z,35.47
2022-09-28T13:09:01.626Z,35.45
2022-09-28T13:12:02.569Z,35.63
2022-09-28T13:14:54.578Z,35.65
2022-09-28T13:17:26.419Z,35.93
2022-09-28T13:20:14.036Z,35.41
2022-09-28T13:23:09.336Z,34.99
2022-09-28T13:25:42.564Z,35.45
2022-09-28T13:28:15.653Z,35.58
2022-09-28T13:30:45.198Z,35.67
2022-09-28T13:33:41.100Z,36.54
2022-09-28T13:36:30.529Z,36.50
2022-09-28T13:39:01.831Z,36.89
2022-09-28T13:41:38.752Z,37.27
2022-09-28T13:44:16.737Z,37.98
2022-09-28T13:47:01.632Z,37.86
2022-09-28T13:49:56.738Z,38.31
2022-09-28T13:52:50.468Z,39.14
2022-09-28T13:55:54.042Z,39.50
2022-09-28T13:58:33.326Z,38.60
2022-09-28T14:01:12.046Z,38.60
2022-09-28T14:03:54.194Z,39.04
2022-09-28T14:06:25.900Z,39.29
2022-09-28T14:09:08.645Z,39.33
2022-09-28T14:11:36.810Z,40.07
2022-09-28T14:14:14.208Z,40.15
2022-09-28T14:16:46.127Z,39.41
2022-09-28T14:19:24.319Z,39.76
2022-09-28T14:22:05.112Z,39.86
2022-09-28T14:24:47.744Z,39.95
2022-09-28T14:27:36.194Z,40.00
2022-09-28T14:30:48.289Z,39.99
2022-09-28T14:33:22.004Z,40.54
2022-09-28T14:35:56.554Z,40.93
2022-09-28T14:38:54.941Z,41.15
2022-09-28T14:41:39.812Z,41.20
2022-09-28T14:44:18.142Z,40.73
2022-09-28T14:46:49.341Z,40.63
2022-09-28T14:49:20.132Z,40.01
2022-09-28T14:51:49.139Z,40.11
2022-09-28T14:54:22.628Z,40.22
2022-09-28T14:56:53.023Z,40.51
2022-09-28T14:59:25.151Z,40.11
2022-09-28T15:02:01.339Z,39.34
2022-09-28T15:04:31.779Z,38.51
2022-09-28T15:07:00.286Z,37.11
2022-09-28T15:09:37.186Z,35.84
2022-09-28T15:12:13.208Z,34.96
2022-09-28T15:14:54.282Z,34.23
2022-09-28T15:17:39.971Z,33.68
2022-09-28T15:20:23.797Z,33.14
2022-09-28T15:22:58.597Z,32.33
2022-09-28T15:25:32.386Z,31.56
2022-09-28T15:28:14.033Z,31.16
2022-09-28T15:30:41.609Z,30.77
2022-09-28T15:33:54.399Z,30.42
2022-09-28T15:36:28.812Z,30.01
2022-09-28T15:39:20.663Z,29.59
2022-09-28T15:41:51.025Z,29.31
2022-09-28T15:44:35.215Z,29.11
2022-09-28T15:47:24.862Z,28.98
2022-09-28T15:50:03.892Z,28.59
2022-09-28T15:52:47.284Z,28.26
2022-09-28T15:55:23.569Z,28.25
2022-09-28T15:58:15.841Z,28.04
2022-09-28T16:01:19.160Z,27.89
2022-09-28T16:03:46.690Z,27.67
2022-09-28T16:06:14.399Z,27.42
2022-09-28T16:08:48.544Z,27.31
2022-09-28T16:11:28.880Z,27.09
2022-09-28T16:14:08.942Z,26.93
2022-09-28T16:16:52.215Z,26.77
2022-09-28T16:19:40.179Z,26.65
2022-09-28T16:22:24.456Z,26.45
2022-09-28T16:24:59.013Z,26.29
2022-09-28T16:28:01.668Z,26.10
2022-09-28T16:30:33.580Z,25.90
2022-09-28T16:33:06.727Z,25.80
2022-09-28T16:35:51.792Z,25.66
2022-09-28T16:38:20.412Z,25.52
2022-09-28T16:40:52.796Z,25.35
2022-09-28T16:43:28.301Z,25.35
2022-09-28T16:45:59.264Z,25.33
2022-09-28T16:48:49.406Z,25.22
2022-09-28T16:51:22.077Z,25.04
2022-09-28T16:54:08.834Z,25.06
2022-09-28T16:56:37.389Z,24.93
2022-09-28T16:59:05.309Z,24.95
2022-09-28T17:01:33.047Z,24.87
2022-09-28T17:04:00.556Z,24.84
2022-09-28T17:06:28.407Z,24.75
2022-09-28T17:08:59.444Z,24.56
2022-09-28T17:11:27.110Z,24.39
2022-09-28T17:13:59.358Z,24.44
2022-09-28T17:19:25.028Z,24.44
2022-09-28T17:21:53.601Z,24.41
2022-09-28T17:24:23.687Z,24.23
2022-09-28T17:26:52.738Z,24.16
2022-09-28T17:29:20.657Z,24.07
2022-09-28T17:31:48.784Z,23.96
2022-09-28T17:34:17.328Z,23.92
2022-09-28T17:36:47.729Z,23.73
2022-09-28T17:39:19.145Z,24.20
2022-09-28T17:41:46.849Z,23.71
2022-09-28T17:44:16.077Z,23.49
2022-09-28T17:46:47.568Z,23.34
2022-09-28T17:49:16.135Z,23.33
2022-09-28T17:51:43.642Z,23.19
2022-09-28T17:54:20.805Z,23.20
2022-09-28T17:56:48.488Z,23.08
2022-09-28T17:59:20.496Z,23.10
2022-09-28T18:01:49.226Z,23.20
2022-09-28T18:04:47.165Z,23.07
2022-09-28T18:07:06.341Z,23.01
2022-09-28T18:09:34.989Z,22.96
2022-09-28T18:12:05.740Z,22.90
2022-09-28T18:14:33.841Z,22.77
2022-09-28T18:17:01.791Z,22.73
2022-09-28T18:19:32.319Z,22.76
2022-09-28T18:22:01.427Z,22.62
2022-09-28T18:24:29.924Z,22.60
2022-09-28T18:26:58.170Z,22.57
2022-09-28T18:29:26.706Z,22.50
2022-09-28T18:31:55.558Z,22.52
2022-09-28T18:34:26.226Z,22.45
2022-09-28T18:36:53.841Z,22.21
2022-09-28T18:39:21.734Z,22.12
2022-09-28T18:41:49.336Z,22.18
2022-09-28T18:44:16.898Z,22.00
2022-09-28T18:46:45.107Z,21.96
2022-09-28T18:49:14.292Z,21.88
2022-09-28T18:51:41.938Z,21.77
2022-09-28T18:54:09.612Z,21.63
2022-09-28T18:56:38.172Z,21.50
2022-09-28T18:59:13.455Z,21.49
2022-09-28T19:01:42.129Z,21.47
2022-09-28T19:04:16.953Z,21.32
2022-09-28T19:06:51.826Z,21.36
2022-09-28T19:09:22.108Z,21.49
2022-09-28T19:11:50.383Z,21.38
2022-09-28T19:14:18.007Z,21.25
2022-09-28T19:16:45.922Z,21.30
2022-09-28T19:19:16.792Z,21.17
2022-09-28T19:21:45.167Z,21.27
2022-09-28T19:24:18.266Z,21.20
2022-09-28T19:26:46.615Z,21.24
2022-09-28T19:29:15.276Z,21.19
2022-09-28T19:31:44.172Z,21.17
2022-09-28T19:34:14.171Z,21.21
2022-09-28T19:36:43.274Z,21.20
2022-09-28T19:39:15.380Z,21.13
2022-09-28T19:41:49.505Z,21.13
2022-09-28T19:44:25.102Z,21.17
2022-09-28T19:47:04.188Z,21.22
2022-09-28T19:49:33.074Z,21.23
2022-09-28T19:52:12.850Z,21.12
2022-09-28T19:55:01.013Z,21.09
2022-09-28T19:57:31.755Z,21.01
2022-09-28T20:00:03.549Z,20.94
2022-09-28T20:02:35.388Z,20.90
2022-09-28T20:05:03.299Z,20.93
2022-09-28T20:07:33.365Z,20.93
2022-09-28T20:10:00.905Z,20.96
2022-09-28T20:12:29.427Z,20.90
2022-09-28T20:15:00.238Z,20.93
2022-09-28T20:17:27.743Z,20.95
2022-09-28T20:19:55.607Z,20.87
2022-09-28T20:22:23.149Z,20.76
2022-09-28T20:24:50.565Z,20.76
2022-09-28T20:27:18.068Z,20.80
2022-09-28T20:29:45.470Z,20.73
2022-09-28T20:32:13.572Z,20.65
2022-09-28T20:34:41.048Z,20.63
2022-09-28T20:37:08.561Z,20.54
2022-09-28T20:39:36.055Z,20.51
2022-09-28T20:42:03.582Z,20.44
2022-09-28T20:44:31.277Z,20.40
2022-09-28T20:46:58.839Z,20.44
2022-09-28T20:49:28.062Z,20.27
2022-09-28T20:51:56.907Z,20.16
2022-09-28T20:54:25.570Z,20.19
2022-09-28T20:56:53.059Z,20.15
2022-09-28T20:59:22.948Z,20.10
2022-09-28T21:01:51.150Z,20.05
2022-09-28T21:04:19.635Z,20.17
2022-09-28T21:06:47.492Z,20.04
2022-09-28T21:09:16.511Z,20.06
2022-09-28T21:11:43.937Z,20.09
2022-09-28T21:14:11.400Z,20.10
2022-09-28T21:16:39.431Z,20.15
2022-09-28T21:19:07.128Z,20.22
2022-09-28T21:21:34.729Z,20.26
2022-09-28T21:24:02.504Z,20.26
2022-09-28T21:26:31.527Z,20.24
2022-09-28T21:29:10.576Z,20.31
2022-09-28T21:31:46.131Z,20.33
2022-09-28T21:34:19.979Z,20.27
2022-09-28T21:36:51.385Z,20.24
2022-09-28T21:39:20.292Z,19.99
2022-09-28T21:41:48.132Z,19.95
2022-09-28T21:44:15.773Z,19.93
2022-09-28T21:46:43.630Z,19.94
2022-09-28T21:49:13.454Z,19.97
2022-09-28T21:51:40.877Z,19.92
2022-09-28T21:54:08.592Z,19.81
2022-09-28T21:56:36.018Z,19.87
2022-09-28T21:59:03.515Z,19.88
2022-09-28T22:01:31.819Z,19.84
2022-09-28T22:03:59.420Z,19.79
2022-09-28T22:06:28.290Z,19.86
2022-09-28T22:08:56.856Z,19.85
2022-09-28T22:11:27.363Z,19.93
2022-09-28T22:13:59.033Z,19.90
2022-09-28T22:16:30.340Z,19.81
2022-09-28T22:18:59.047Z,19.77
2022-09-28T22:21:31.998Z,19.72
2022-09-28T22:24:05.548Z,19.74
2022-09-28T22:26:36.149Z,19.52
2022-09-28T22:29:10.704Z,19.40
2022-09-28T22:31:40.977Z,19.42
2022-09-28T22:34:09.839Z,19.37
2022-09-28T22:36:37.595Z,19.43
2022-09-28T22:39:05.269Z,19.45
2022-09-28T22:41:33.083Z,19.33
2022-09-28T22:44:01.173Z,19.28
2022-09-28T22:46:32.237Z,19.16
2022-09-28T22:49:00.702Z,19.19
2022-09-28T22:51:30.060Z,19.03
2022-09-28T22:53:58.330Z,18.90
2022-09-28T22:56:25.900Z,18.77
2022-09-28T22:58:53.709Z,18.70
2022-09-28T23:01:24.991Z,18.62
2022-09-28T23:03:54.365Z,18.51
2022-09-28T23:06:24.866Z,18.48
2022-09-28T23:08:53.032Z,18.61
2022-09-28T23:11:20.880Z,18.46
2022-09-28T23:13:52.968Z,18.37
2022-09-28T23:16:23.596Z,18.33
2022-09-28T23:18:51.522Z,18.21
2022-09-28T23:21:21.900Z,18.13
2022-09-28T23:23:59.069Z,18.09
2022-09-28T23:26:30.825Z,18.09
2022-09-28T23:28:59.651Z,18.04
2022-09-28T23:31:30.753Z,17.75
2022-09-28T23:34:04.135Z,17.69
2022-09-28T23:36:32.465Z,17.83
2022-09-28T23:39:03.854Z,17.68
2022-09-28T23:41:31.564Z,17.50
2022-09-28T23:43:59.034Z,17.40
2022-09-28T23:46:26.596Z,17.37
2022-09-28T23:48:54.208Z,17.33
2022-09-28T23:51:21.830Z,17.26
2022-09-28T23:53:49.368Z,17.23
2022-09-28T23:56:17.062Z,17.33
2022-09-28T23:58:47.237Z,17.28
